sensor_id;sensor_type;location;lat;lon;timestamp;P1;durP1;ratioP1;P2;durP2;ratioP2
13483;SDS011;6814;57.786;12.080;2023-04-25T00:02:18;8.40;;;7.70;;
13483;SDS011;6814;57.786;12.080;2023-04-25T00:04:44;7.57;;;6.97;;
13483;SDS011;6814;57.786;12.080;2023-04-25T00:07:15;7.83;;;7.13;;
13483;SDS011;6814;57.786;12.080;2023-04-25T00:09:41;7.90;;;7.03;;
13483;SDS011;6814;57.786;12.080;2023-04-25T00:12:08;8.70;;;7.80;;
13483;SDS011;6814;57.786;12.080;2023-04-25T00:14:34;9.67;;;8.77;;
13483;SDS011;6814;57.786;12.080;2023-04-25T00:17:01;9.30;;;8.30;;
13483;SDS011;6814;57.786;12.080;2023-04-25T00:19:27;11.67;;;9.13;;
13483;SDS011;6814;57.786;12.080;2023-04-25T00:21:54;10.50;;;9.60;;
13483;SDS011;6814;57.786;12.080;2023-04-25T00:24:22;10.33;;;9.33;;
13483;SDS011;6814;57.786;12.080;2023-04-25T00:26:48;11.63;;;9.90;;
13483;SDS011;6814;57.786;12.080;2023-04-25T00:29:15;11.17;;;9.97;;
13483;SDS011;6814;57.786;12.080;2023-04-25T00:31:41;11.47;;;10.37;;
13483;SDS011;6814;57.786;12.080;2023-04-25T00:34:07;11.83;;;10.63;;
13483;SDS011;6814;57.786;12.080;2023-04-25T00:36:34;12.50;;;11.20;;
13483;SDS011;6814;57.786;12.080;2023-04-25T00:39:01;12.40;;;11.00;;
13483;SDS011;6814;57.786;12.080;2023-04-25T00:41:29;11.90;;;10.70;;
13483;SDS011;6814;57.786;12.080;2023-04-25T00:43:56;12.17;;;10.80;;
13483;SDS011;6814;57.786;12.080;2023-04-25T00:46:22;12.43;;;11.13;;
13483;SDS011;6814;57.786;12.080;2023-04-25T00:48:49;12.60;;;10.77;;
13483;SDS011;6814;57.786;12.080;2023-04-25T00:51:16;12.20;;;10.90;;
13483;SDS011;6814;57.786;12.080;2023-04-25T00:53:45;12.97;;;11.27;;
13483;SDS011;6814;57.786;12.080;2023-04-25T00:56:11;12.70;;;11.03;;
13483;SDS011;6814;57.786;12.080;2023-04-25T00:58:39;11.70;;;10.03;;
13483;SDS011;6814;57.786;12.080;2023-04-25T01:01:06;14.50;;;11.00;;
13483;SDS011;6814;57.786;12.080;2023-04-25T01:03:33;15.23;;;11.90;;
13483;SDS011;6814;57.786;12.080;2023-04-25T01:06:00;13.13;;;11.00;;
13483;SDS011;6814;57.786;12.080;2023-04-25T01:08:27;13.57;;;11.40;;
13483;SDS011;6814;57.786;12.080;2023-04-25T01:10:54;14.60;;;12.20;;
13483;SDS011;6814;57.786;12.080;2023-04-25T01:13:20;16.57;;;12.67;;
13483;SDS011;6814;57.786;12.080;2023-04-25T01:15:48;17.17;;;12.73;;
13483;SDS011;6814;57.786;12.080;2023-04-25T01:18:14;16.97;;;12.70;;
13483;SDS011;6814;57.786;12.080;2023-04-25T01:20:41;18.57;;;13.73;;
13483;SDS011;6814;57.786;12.080;2023-04-25T01:23:09;19.07;;;13.30;;
13483;SDS011;6814;57.786;12.080;2023-04-25T01:25:36;19.10;;;14.20;;
13483;SDS011;6814;57.786;12.080;2023-04-25T01:28:03;14.47;;;12.00;;
13483;SDS011;6814;57.786;12.080;2023-04-25T01:30:29;16.90;;;13.47;;
13483;SDS011;6814;57.786;12.080;2023-04-25T01:32:56;18.07;;;12.53;;
13483;SDS011;6814;57.786;12.080;2023-04-25T01:35:22;16.43;;;12.93;;
13483;SDS011;6814;57.786;12.080;2023-04-25T01:37:50;18.73;;;12.90;;
13483;SDS011;6814;57.786;12.080;2023-04-25T01:40:18;16.53;;;12.73;;
13483;SDS011;6814;57.786;12.080;2023-04-25T01:42:46;14.47;;;12.13;;
13483;SDS011;6814;57.786;12.080;2023-04-25T01:45:13;16.90;;;12.90;;
13483;SDS011;6814;57.786;12.080;2023-04-25T01:47:39;20.50;;;13.37;;
13483;SDS011;6814;57.786;12.080;2023-04-25T01:50:08;16.33;;;13.37;;
13483;SDS011;6814;57.786;12.080;2023-04-25T01:52:34;16.57;;;13.13;;
13483;SDS011;6814;57.786;12.080;2023-04-25T01:55:01;17.33;;;13.00;;
13483;SDS011;6814;57.786;12.080;2023-04-25T01:57:29;18.17;;;13.40;;
13483;SDS011;6814;57.786;12.080;2023-04-25T01:59:57;16.27;;;12.80;;
13483;SDS011;6814;57.786;12.080;2023-04-25T02:02:24;15.40;;;12.83;;
13483;SDS011;6814;57.786;12.080;2023-04-25T02:04:51;17.23;;;13.00;;
13483;SDS011;6814;57.786;12.080;2023-04-25T02:07:17;13.47;;;11.60;;
13483;SDS011;6814;57.786;12.080;2023-04-25T02:09:44;13.60;;;11.63;;
13483;SDS011;6814;57.786;12.080;2023-04-25T02:12:10;13.33;;;11.57;;
13483;SDS011;6814;57.786;12.080;2023-04-25T02:14:38;15.73;;;12.17;;
13483;SDS011;6814;57.786;12.080;2023-04-25T02:17:04;12.97;;;11.47;;
13483;SDS011;6814;57.786;12.080;2023-04-25T02:19:32;13.53;;;11.00;;
13483;SDS011;6814;57.786;12.080;2023-04-25T02:21:58;13.70;;;11.90;;
13483;SDS011;6814;57.786;12.080;2023-04-25T02:24:24;14.70;;;11.47;;
13483;SDS011;6814;57.786;12.080;2023-04-25T02:26:52;14.87;;;11.27;;
13483;SDS011;6814;57.786;12.080;2023-04-25T02:29:20;13.73;;;11.00;;
13483;SDS011;6814;57.786;12.080;2023-04-25T02:31:48;13.90;;;11.57;;
13483;SDS011;6814;57.786;12.080;2023-04-25T02:34:15;13.33;;;10.73;;
13483;SDS011;6814;57.786;12.080;2023-04-25T02:36:41;12.57;;;10.13;;
13483;SDS011;6814;57.786;12.080;2023-04-25T02:39:07;11.90;;;9.93;;
13483;SDS011;6814;57.786;12.080;2023-04-25T02:41:35;10.83;;;9.07;;
13483;SDS011;6814;57.786;12.080;2023-04-25T02:44:01;12.00;;;10.80;;
13483;SDS011;6814;57.786;12.080;2023-04-25T02:46:28;10.63;;;9.53;;
13483;SDS011;6814;57.786;12.080;2023-04-25T02:48:56;12.07;;;9.63;;
13483;SDS011;6814;57.786;12.080;2023-04-25T02:51:22;11.37;;;9.67;;
13483;SDS011;6814;57.786;12.080;2023-04-25T02:53:48;12.23;;;9.47;;
13483;SDS011;6814;57.786;12.080;2023-04-25T02:56:15;10.47;;;9.37;;
13483;SDS011;6814;57.786;12.080;2023-04-25T02:58:41;10.23;;;9.23;;
13483;SDS011;6814;57.786;12.080;2023-04-25T03:01:08;10.13;;;9.03;;
13483;SDS011;6814;57.786;12.080;2023-04-25T03:03:34;12.57;;;9.33;;
13483;SDS011;6814;57.786;12.080;2023-04-25T03:06:02;10.67;;;9.43;;
13483;SDS011;6814;57.786;12.080;2023-04-25T03:08:28;9.67;;;8.67;;
13483;SDS011;6814;57.786;12.080;2023-04-25T03:10:57;10.17;;;8.20;;
13483;SDS011;6814;57.786;12.080;2023-04-25T03:13:24;8.80;;;7.90;;
13483;SDS011;6814;57.786;12.080;2023-04-25T03:15:50;9.93;;;8.67;;
13483;SDS011;6814;57.786;12.080;2023-04-25T03:18:17;10.13;;;8.00;;
13483;SDS011;6814;57.786;12.080;2023-04-25T03:20:43;8.67;;;7.70;;
13483;SDS011;6814;57.786;12.080;2023-04-25T03:23:11;9.17;;;8.20;;
13483;SDS011;6814;57.786;12.080;2023-04-25T03:25:37;8.10;;;7.30;;
13483;SDS011;6814;57.786;12.080;2023-04-25T03:28:04;8.17;;;7.37;;
13483;SDS011;6814;57.786;12.080;2023-04-25T03:30:31;7.33;;;6.63;;
13483;SDS011;6814;57.786;12.080;2023-04-25T03:32:57;7.77;;;6.80;;
13483;SDS011;6814;57.786;12.080;2023-04-25T03:35:24;7.17;;;6.47;;
13483;SDS011;6814;57.786;12.080;2023-04-25T03:37:50;7.63;;;6.87;;
13483;SDS011;6814;57.786;12.080;2023-04-25T03:40:18;8.33;;;6.90;;
13483;SDS011;6814;57.786;12.080;2023-04-25T03:42:45;7.80;;;6.90;;
13483;SDS011;6814;57.786;12.080;2023-04-25T03:45:11;9.77;;;7.03;;
13483;SDS011;6814;57.786;12.080;2023-04-25T03:47:37;8.13;;;7.07;;
13483;SDS011;6814;57.786;12.080;2023-04-25T03:50:04;7.90;;;6.93;;
13483;SDS011;6814;57.786;12.080;2023-04-25T03:52:31;7.50;;;6.80;;
13483;SDS011;6814;57.786;12.080;2023-04-25T03:54:58;8.23;;;7.33;;
13483;SDS011;6814;57.786;12.080;2023-04-25T03:57:26;11.90;;;6.87;;
13483;SDS011;6814;57.786;12.080;2023-04-25T03:59:52;8.07;;;7.27;;
13483;SDS011;6814;57.786;12.080;2023-04-25T04:02:18;8.83;;;7.67;;
13483;SDS011;6814;57.786;12.080;2023-04-25T04:04:45;9.20;;;7.50;;
13483;SDS011;6814;57.786;12.080;2023-04-25T04:07:11;8.77;;;7.73;;
13483;SDS011;6814;57.786;12.080;2023-04-25T04:09:37;9.37;;;7.93;;
13483;SDS011;6814;57.786;12.080;2023-04-25T04:12:04;9.80;;;8.60;;
13483;SDS011;6814;57.786;12.080;2023-04-25T04:14:32;9.87;;;8.57;;
13483;SDS011;6814;57.786;12.080;2023-04-25T04:16:58;11.77;;;9.70;;
13483;SDS011;6814;57.786;12.080;2023-04-25T04:19:25;10.47;;;9.00;;
13483;SDS011;6814;57.786;12.080;2023-04-25T04:21:51;11.50;;;9.63;;
13483;SDS011;6814;57.786;12.080;2023-04-25T04:24:18;11.83;;;9.53;;
13483;SDS011;6814;57.786;12.080;2023-04-25T04:26:44;10.17;;;9.03;;
13483;SDS011;6814;57.786;12.080;2023-04-25T04:29:11;11.23;;;9.10;;
13483;SDS011;6814;57.786;12.080;2023-04-25T04:31:46;13.57;;;10.83;;
13483;SDS011;6814;57.786;12.080;2023-04-25T04:34:13;14.43;;;10.80;;
13483;SDS011;6814;57.786;12.080;2023-04-25T04:36:41;13.27;;;10.43;;
13483;SDS011;6814;57.786;12.080;2023-04-25T04:39:08;17.73;;;12.33;;
13483;SDS011;6814;57.786;12.080;2023-04-25T04:41:34;17.07;;;12.10;;
13483;SDS011;6814;57.786;12.080;2023-04-25T04:44:01;19.97;;;14.17;;
13483;SDS011;6814;57.786;12.080;2023-04-25T04:46:28;18.40;;;13.50;;
13483;SDS011;6814;57.786;12.080;2023-04-25T04:48:56;21.27;;;14.77;;
13483;SDS011;6814;57.786;12.080;2023-04-25T04:51:23;22.57;;;15.03;;
13483;SDS011;6814;57.786;12.080;2023-04-25T04:53:50;24.70;;;15.97;;
13483;SDS011;6814;57.786;12.080;2023-04-25T04:56:17;22.90;;;15.87;;
13483;SDS011;6814;57.786;12.080;2023-04-25T04:58:45;24.23;;;16.23;;
13483;SDS011;6814;57.786;12.080;2023-04-25T05:01:14;26.03;;;17.33;;
13483;SDS011;6814;57.786;12.080;2023-04-25T05:03:41;24.77;;;17.23;;
13483;SDS011;6814;57.786;12.080;2023-04-25T05:06:08;29.17;;;18.43;;
13483;SDS011;6814;57.786;12.080;2023-04-25T05:08:35;25.30;;;17.50;;
13483;SDS011;6814;57.786;12.080;2023-04-25T05:11:02;28.00;;;18.77;;
13483;SDS011;6814;57.786;12.080;2023-04-25T05:13:28;28.83;;;18.30;;
13483;SDS011;6814;57.786;12.080;2023-04-25T05:15:55;27.10;;;17.80;;
13483;SDS011;6814;57.786;12.080;2023-04-25T05:18:21;28.50;;;19.13;;
13483;SDS011;6814;57.786;12.080;2023-04-25T05:20:48;27.43;;;18.43;;
13483;SDS011;6814;57.786;12.080;2023-04-25T05:23:15;26.20;;;18.43;;
13483;SDS011;6814;57.786;12.080;2023-04-25T05:25:42;27.43;;;16.83;;
13483;SDS011;6814;57.786;12.080;2023-04-25T05:28:08;24.67;;;16.30;;
13483;SDS011;6814;57.786;12.080;2023-04-25T05:30:35;20.80;;;15.23;;
13483;SDS011;6814;57.786;12.080;2023-04-25T05:33:01;24.40;;;16.63;;
13483;SDS011;6814;57.786;12.080;2023-04-25T05:35:27;20.30;;;14.83;;
13483;SDS011;6814;57.786;12.080;2023-04-25T05:37:54;24.37;;;14.80;;
13483;SDS011;6814;57.786;12.080;2023-04-25T05:40:22;22.57;;;15.03;;
13483;SDS011;6814;57.786;12.080;2023-04-25T05:42:48;19.60;;;14.40;;
13483;SDS011;6814;57.786;12.080;2023-04-25T05:45:15;17.53;;;12.73;;
13483;SDS011;6814;57.786;12.080;2023-04-25T05:47:42;18.60;;;13.80;;
13483;SDS011;6814;57.786;12.080;2023-04-25T05:50:09;18.67;;;13.23;;
13483;SDS011;6814;57.786;12.080;2023-04-25T05:52:35;16.97;;;11.77;;
13483;SDS011;6814;57.786;12.080;2023-04-25T05:55:01;15.07;;;11.90;;
13483;SDS011;6814;57.786;12.080;2023-04-25T05:57:29;16.73;;;12.20;;
13483;SDS011;6814;57.786;12.080;2023-04-25T05:59:56;14.90;;;11.90;;
13483;SDS011;6814;57.786;12.080;2023-04-25T06:02:22;18.57;;;11.97;;
13483;SDS011;6814;57.786;12.080;2023-04-25T06:04:49;14.40;;;11.10;;
13483;SDS011;6814;57.786;12.080;2023-04-25T06:07:15;15.90;;;11.70;;
13483;SDS011;6814;57.786;12.080;2023-04-25T06:09:42;15.53;;;11.23;;
13483;SDS011;6814;57.786;12.080;2023-04-25T06:12:08;15.73;;;10.83;;
13483;SDS011;6814;57.786;12.080;2023-04-25T06:14:36;12.63;;;10.90;;
13483;SDS011;6814;57.786;12.080;2023-04-25T06:17:03;14.40;;;11.67;;
13483;SDS011;6814;57.786;12.080;2023-04-25T06:19:31;11.23;;;9.20;;
13483;SDS011;6814;57.786;12.080;2023-04-25T06:21:58;11.07;;;9.33;;
13483;SDS011;6814;57.786;12.080;2023-04-25T06:24:24;11.47;;;9.30;;
13483;SDS011;6814;57.786;12.080;2023-04-25T06:26:51;11.37;;;9.37;;
13483;SDS011;6814;57.786;12.080;2023-04-25T06:29:18;9.80;;;8.80;;
13483;SDS011;6814;57.786;12.080;2023-04-25T06:31:46;9.53;;;8.40;;
13483;SDS011;6814;57.786;12.080;2023-04-25T06:34:12;9.03;;;8.13;;
13483;SDS011;6814;57.786;12.080;2023-04-25T06:36:39;8.43;;;7.23;;
13483;SDS011;6814;57.786;12.080;2023-04-25T06:39:06;8.83;;;7.30;;
13483;SDS011;6814;57.786;12.080;2023-04-25T06:41:34;11.80;;;9.37;;
13483;SDS011;6814;57.786;12.080;2023-04-25T06:44:00;10.60;;;8.20;;
13483;SDS011;6814;57.786;12.080;2023-04-25T06:46:26;7.87;;;7.03;;
13483;SDS011;6814;57.786;12.080;2023-04-25T06:48:54;8.03;;;7.20;;
13483;SDS011;6814;57.786;12.080;2023-04-25T06:51:21;7.90;;;6.33;;
13483;SDS011;6814;57.786;12.080;2023-04-25T06:53:49;7.83;;;5.93;;
13483;SDS011;6814;57.786;12.080;2023-04-25T06:56:15;7.20;;;6.03;;
13483;SDS011;6814;57.786;12.080;2023-04-25T06:58:42;8.63;;;6.60;;
13483;SDS011;6814;57.786;12.080;2023-04-25T07:01:08;11.87;;;6.57;;
13483;SDS011;6814;57.786;12.080;2023-04-25T07:03:35;9.83;;;6.17;;
13483;SDS011;6814;57.786;12.080;2023-04-25T07:06:03;9.97;;;7.33;;
13483;SDS011;6814;57.786;12.080;2023-04-25T07:08:30;9.77;;;6.37;;
13483;SDS011;6814;57.786;12.080;2023-04-25T07:10:56;7.23;;;4.30;;
13483;SDS011;6814;57.786;12.080;2023-04-25T07:13:23;10.00;;;3.40;;
13483;SDS011;6814;57.786;12.080;2023-04-25T07:15:49;4.77;;;3.00;;
13483;SDS011;6814;57.786;12.080;2023-04-25T07:18:16;8.27;;;3.63;;
13483;SDS011;6814;57.786;12.080;2023-04-25T07:20:42;5.17;;;3.30;;
13483;SDS011;6814;57.786;12.080;2023-04-25T07:23:10;4.63;;;2.57;;
13483;SDS011;6814;57.786;12.080;2023-04-25T07:25:37;6.30;;;2.10;;
13483;SDS011;6814;57.786;12.080;2023-04-25T07:28:03;5.20;;;2.20;;
13483;SDS011;6814;57.786;12.080;2023-04-25T07:30:30;6.43;;;2.27;;
13483;SDS011;6814;57.786;12.080;2023-04-25T07:32:56;4.50;;;1.67;;
13483;SDS011;6814;57.786;12.080;2023-04-25T07:35:22;2.77;;;1.73;;
13483;SDS011;6814;57.786;12.080;2023-04-25T07:37:49;3.50;;;2.20;;
13483;SDS011;6814;57.786;12.080;2023-04-25T07:40:17;3.60;;;2.00;;
13483;SDS011;6814;57.786;12.080;2023-04-25T07:42:44;2.37;;;2.00;;
13483;SDS011;6814;57.786;12.080;2023-04-25T07:45:10;4.17;;;1.90;;
13483;SDS011;6814;57.786;12.080;2023-04-25T07:47:37;3.87;;;1.20;;
13483;SDS011;6814;57.786;12.080;2023-04-25T07:50:04;2.77;;;1.60;;
13483;SDS011;6814;57.786;12.080;2023-04-25T07:52:31;4.47;;;1.90;;
13483;SDS011;6814;57.786;12.080;2023-04-25T07:54:57;4.47;;;2.20;;
13483;SDS011;6814;57.786;12.080;2023-04-25T07:57:25;4.90;;;2.30;;
13483;SDS011;6814;57.786;12.080;2023-04-25T07:59:52;5.73;;;2.10;;
13483;SDS011;6814;57.786;12.080;2023-04-25T08:02:18;3.00;;;1.83;;
13483;SDS011;6814;57.786;12.080;2023-04-25T08:04:45;3.13;;;1.77;;
13483;SDS011;6814;57.786;12.080;2023-04-25T08:07:29;3.23;;;1.47;;
13483;SDS011;6814;57.786;12.080;2023-04-25T08:09:56;3.27;;;1.50;;
13483;SDS011;6814;57.786;12.080;2023-04-25T08:12:22;2.83;;;1.63;;
13483;SDS011;6814;57.786;12.080;2023-04-25T08:14:50;1.67;;;1.20;;
13483;SDS011;6814;57.786;12.080;2023-04-25T08:17:17;3.87;;;1.77;;
13483;SDS011;6814;57.786;12.080;2023-04-25T08:19:43;6.20;;;1.70;;
13483;SDS011;6814;57.786;12.080;2023-04-25T08:22:09;2.20;;;1.33;;
13483;SDS011;6814;57.786;12.080;2023-04-25T08:24:37;1.73;;;1.40;;
13483;SDS011;6814;57.786;12.080;2023-04-25T08:27:04;3.43;;;1.47;;
13483;SDS011;6814;57.786;12.080;2023-04-25T08:29:31;2.80;;;1.10;;
13483;SDS011;6814;57.786;12.080;2023-04-25T08:31:59;3.03;;;1.40;;
13483;SDS011;6814;57.786;12.080;2023-04-25T08:34:26;6.17;;;1.53;;
13483;SDS011;6814;57.786;12.080;2023-04-25T08:36:52;2.07;;;1.23;;
13483;SDS011;6814;57.786;12.080;2023-04-25T08:39:18;3.97;;;1.30;;
13483;SDS011;6814;57.786;12.080;2023-04-25T08:41:45;2.20;;;1.33;;
13483;SDS011;6814;57.786;12.080;2023-04-25T08:44:12;3.57;;;1.30;;
13483;SDS011;6814;57.786;12.080;2023-04-25T08:46:39;3.00;;;1.00;;
13483;SDS011;6814;57.786;12.080;2023-04-25T08:49:07;1.43;;;1.10;;
13483;SDS011;6814;57.786;12.080;2023-04-25T08:51:35;1.87;;;1.30;;
13483;SDS011;6814;57.786;12.080;2023-04-25T08:54:06;4.90;;;1.20;;
13483;SDS011;6814;57.786;12.080;2023-04-25T08:56:34;2.93;;;0.87;;
13483;SDS011;6814;57.786;12.080;2023-04-25T08:59:01;4.73;;;0.73;;
13483;SDS011;6814;57.786;12.080;2023-04-25T09:01:28;2.60;;;0.90;;
13483;SDS011;6814;57.786;12.080;2023-04-25T09:03:54;2.67;;;0.90;;
13483;SDS011;6814;57.786;12.080;2023-04-25T09:06:22;2.20;;;1.03;;
13483;SDS011;6814;57.786;12.080;2023-04-25T09:08:49;1.67;;;0.63;;
13483;SDS011;6814;57.786;12.080;2023-04-25T09:11:16;2.13;;;0.83;;
13483;SDS011;6814;57.786;12.080;2023-04-25T09:13:43;1.90;;;0.70;;
13483;SDS011;6814;57.786;12.080;2023-04-25T09:16:09;2.80;;;0.77;;
13483;SDS011;6814;57.786;12.080;2023-04-25T09:18:37;0.90;;;0.87;;
13483;SDS011;6814;57.786;12.080;2023-04-25T09:21:07;1.03;;;0.80;;
13483;SDS011;6814;57.786;12.080;2023-04-25T09:23:40;1.10;;;0.90;;
13483;SDS011;6814;57.786;12.080;2023-04-25T09:26:06;2.83;;;0.93;;
13483;SDS011;6814;57.786;12.080;2023-04-25T09:28:33;1.83;;;1.20;;
13483;SDS011;6814;57.786;12.080;2023-04-25T09:31:00;2.90;;;1.10;;
13483;SDS011;6814;57.786;12.080;2023-04-25T09:33:27;0.93;;;0.73;;
13483;SDS011;6814;57.786;12.080;2023-04-25T09:35:56;3.50;;;1.10;;
13483;SDS011;6814;57.786;12.080;2023-04-25T09:38:27;3.03;;;1.10;;
13483;SDS011;6814;57.786;12.080;2023-04-25T09:40:57;3.30;;;1.17;;
13483;SDS011;6814;57.786;12.080;2023-04-25T09:43:24;3.80;;;1.23;;
13483;SDS011;6814;57.786;12.080;2023-04-25T09:45:51;3.13;;;0.93;;
13483;SDS011;6814;57.786;12.080;2023-04-25T09:48:21;2.73;;;1.00;;
13483;SDS011;6814;57.786;12.080;2023-04-25T09:50:52;4.93;;;1.03;;
13483;SDS011;6814;57.786;12.080;2023-04-25T09:53:29;2.70;;;1.20;;
13483;SDS011;6814;57.786;12.080;2023-04-25T09:55:58;5.10;;;2.13;;
13483;SDS011;6814;57.786;12.080;2023-04-25T09:58:25;2.37;;;0.90;;
13483;SDS011;6814;57.786;12.080;2023-04-25T10:00:54;2.80;;;0.93;;
13483;SDS011;6814;57.786;12.080;2023-04-25T10:03:21;3.27;;;0.87;;
13483;SDS011;6814;57.786;12.080;2023-04-25T10:05:51;2.37;;;0.60;;
13483;SDS011;6814;57.786;12.080;2023-04-25T10:08:19;1.47;;;1.00;;
13483;SDS011;6814;57.786;12.080;2023-04-25T10:10:46;2.03;;;0.80;;
13483;SDS011;6814;57.786;12.080;2023-04-25T10:13:14;1.80;;;0.70;;
13483;SDS011;6814;57.786;12.080;2023-04-25T10:15:41;1.23;;;0.60;;
13483;SDS011;6814;57.786;12.080;2023-04-25T10:18:08;2.00;;;0.80;;
13483;SDS011;6814;57.786;12.080;2023-04-25T10:20:34;1.47;;;0.90;;
13483;SDS011;6814;57.786;12.080;2023-04-25T10:23:03;3.13;;;1.10;;
13483;SDS011;6814;57.786;12.080;2023-04-25T10:25:33;1.07;;;0.80;;
13483;SDS011;6814;57.786;12.080;2023-04-25T10:27:59;2.60;;;0.93;;
13483;SDS011;6814;57.786;12.080;2023-04-25T10:30:28;1.50;;;0.90;;
13483;SDS011;6814;57.786;12.080;2023-04-25T10:32:55;1.53;;;0.80;;
13483;SDS011;6814;57.786;12.080;2023-04-25T10:35:24;1.63;;;0.60;;
13483;SDS011;6814;57.786;12.080;2023-04-25T10:37:57;3.87;;;0.80;;
13483;SDS011;6814;57.786;12.080;2023-04-25T10:40:23;2.20;;;0.70;;
13483;SDS011;6814;57.786;12.080;2023-04-25T10:42:51;1.10;;;0.70;;
13483;SDS011;6814;57.786;12.080;2023-04-25T10:45:18;2.53;;;0.40;;
13483;SDS011;6814;57.786;12.080;2023-04-25T10:47:46;2.00;;;0.53;;
13483;SDS011;6814;57.786;12.080;2023-04-25T10:50:13;1.70;;;0.70;;
13483;SDS011;6814;57.786;12.080;2023-04-25T10:52:40;1.87;;;0.50;;
13483;SDS011;6814;57.786;12.080;2023-04-25T10:55:07;1.33;;;0.77;;
13483;SDS011;6814;57.786;12.080;2023-04-25T10:57:37;2.83;;;0.80;;
13483;SDS011;6814;57.786;12.080;2023-04-25T11:00:10;1.70;;;1.17;;
13483;SDS011;6814;57.786;12.080;2023-04-25T11:02:40;3.00;;;1.00;;
13483;SDS011;6814;57.786;12.080;2023-04-25T11:05:09;0.50;;;0.50;;
13483;SDS011;6814;57.786;12.080;2023-04-25T11:07:43;3.37;;;0.80;;
13483;SDS011;6814;57.786;12.080;2023-04-25T11:10:10;3.50;;;1.43;;
13483;SDS011;6814;57.786;12.080;2023-04-25T11:12:37;3.07;;;1.23;;
13483;SDS011;6814;57.786;12.080;2023-04-25T11:15:04;4.03;;;1.40;;
13483;SDS011;6814;57.786;12.080;2023-04-25T11:17:31;1.73;;;0.93;;
13483;SDS011;6814;57.786;12.080;2023-04-25T11:19:58;4.63;;;0.90;;
13483;SDS011;6814;57.786;12.080;2023-04-25T11:22:26;2.10;;;0.97;;
13483;SDS011;6814;57.786;12.080;2023-04-25T11:24:53;2.67;;;0.70;;
13483;SDS011;6814;57.786;12.080;2023-04-25T11:27:19;1.83;;;1.00;;
13483;SDS011;6814;57.786;12.080;2023-04-25T11:29:46;1.87;;;0.90;;
13483;SDS011;6814;57.786;12.080;2023-04-25T11:32:14;2.83;;;1.20;;
13483;SDS011;6814;57.786;12.080;2023-04-25T11:34:42;2.47;;;1.00;;
13483;SDS011;6814;57.786;12.080;2023-04-25T11:37:08;1.30;;;0.87;;
13483;SDS011;6814;57.786;12.080;2023-04-25T11:39:38;0.97;;;0.90;;
13483;SDS011;6814;57.786;12.080;2023-04-25T11:42:04;2.90;;;0.87;;
13483;SDS011;6814;57.786;12.080;2023-04-25T11:44:31;2.20;;;0.90;;
13483;SDS011;6814;57.786;12.080;2023-04-25T11:46:58;1.83;;;0.90;;
13483;SDS011;6814;57.786;12.080;2023-04-25T11:49:24;1.37;;;0.90;;
13483;SDS011;6814;57.786;12.080;2023-04-25T11:51:56;2.30;;;1.00;;
13483;SDS011;6814;57.786;12.080;2023-04-25T11:54:22;2.03;;;0.87;;
13483;SDS011;6814;57.786;12.080;2023-04-25T11:56:50;3.53;;;0.80;;
13483;SDS011;6814;57.786;12.080;2023-04-25T11:59:16;1.80;;;0.67;;
13483;SDS011;6814;57.786;12.080;2023-04-25T12:01:47;2.33;;;0.70;;
13483;SDS011;6814;57.786;12.080;2023-04-25T12:04:14;2.00;;;0.90;;
13483;SDS011;6814;57.786;12.080;2023-04-25T12:06:41;1.13;;;0.83;;
13483;SDS011;6814;57.786;12.080;2023-04-25T12:09:09;2.60;;;0.93;;
13483;SDS011;6814;57.786;12.080;2023-04-25T12:11:40;2.20;;;0.90;;
13483;SDS011;6814;57.786;12.080;2023-04-25T12:14:08;2.13;;;1.00;;
13483;SDS011;6814;57.786;12.080;2023-04-25T12:16:41;2.47;;;1.07;;
13483;SDS011;6814;57.786;12.080;2023-04-25T12:19:07;1.10;;;0.83;;
13483;SDS011;6814;57.786;12.080;2023-04-25T12:21:34;3.40;;;1.20;;
13483;SDS011;6814;57.786;12.080;2023-04-25T12:24:09;1.50;;;0.90;;
13483;SDS011;6814;57.786;12.080;2023-04-25T12:26:45;2.33;;;0.90;;
13483;SDS011;6814;57.786;12.080;2023-04-25T12:29:16;0.63;;;0.50;;
13483;SDS011;6814;57.786;12.080;2023-04-25T12:31:42;2.17;;;0.73;;
13483;SDS011;6814;57.786;12.080;2023-04-25T12:34:09;3.00;;;0.80;;
13483;SDS011;6814;57.786;12.080;2023-04-25T12:36:35;1.03;;;0.60;;
13483;SDS011;6814;57.786;12.080;2023-04-25T12:39:02;4.83;;;1.00;;
13483;SDS011;6814;57.786;12.080;2023-04-25T12:41:29;2.40;;;1.00;;
13483;SDS011;6814;57.786;12.080;2023-04-25T12:43:55;1.17;;;0.83;;
13483;SDS011;6814;57.786;12.080;2023-04-25T12:46:23;2.43;;;0.80;;
13483;SDS011;6814;57.786;12.080;2023-04-25T12:48:50;3.60;;;1.27;;
13483;SDS011;6814;57.786;12.080;2023-04-25T12:51:16;2.53;;;1.20;;
13483;SDS011;6814;57.786;12.080;2023-04-25T12:53:43;1.67;;;0.73;;
13483;SDS011;6814;57.786;12.080;2023-04-25T12:56:09;1.27;;;0.90;;
13483;SDS011;6814;57.786;12.080;2023-04-25T12:58:36;2.10;;;1.00;;
13483;SDS011;6814;57.786;12.080;2023-04-25T13:01:02;2.50;;;0.83;;
13483;SDS011;6814;57.786;12.080;2023-04-25T13:03:30;1.17;;;0.70;;
13483;SDS011;6814;57.786;12.080;2023-04-25T13:05:57;3.40;;;0.87;;
13483;SDS011;6814;57.786;12.080;2023-04-25T13:08:23;2.17;;;0.90;;
13483;SDS011;6814;57.786;12.080;2023-04-25T13:10:50;1.93;;;0.97;;
13483;SDS011;6814;57.786;12.080;2023-04-25T13:13:16;0.80;;;0.80;;
13483;SDS011;6814;57.786;12.080;2023-04-25T13:15:43;4.90;;;1.00;;
13483;SDS011;6814;57.786;12.080;2023-04-25T13:18:09;0.83;;;0.67;;
13483;SDS011;6814;57.786;12.080;2023-04-25T13:20:37;1.03;;;0.90;;
13483;SDS011;6814;57.786;12.080;2023-04-25T13:23:03;2.70;;;0.70;;
13483;SDS011;6814;57.786;12.080;2023-04-25T13:25:30;1.20;;;0.50;;
13483;SDS011;6814;57.786;12.080;2023-04-25T13:27:56;0.80;;;0.60;;
13483;SDS011;6814;57.786;12.080;2023-04-25T13:30:23;1.40;;;1.30;;
13483;SDS011;6814;57.786;12.080;2023-04-25T13:32:49;2.03;;;1.20;;
13483;SDS011;6814;57.786;12.080;2023-04-25T13:35:16;1.17;;;1.07;;
13483;SDS011;6814;57.786;12.080;2023-04-25T13:37:44;0.73;;;0.67;;
13483;SDS011;6814;57.786;12.080;2023-04-25T13:40:10;1.73;;;0.60;;
13483;SDS011;6814;57.786;12.080;2023-04-25T13:42:37;0.60;;;0.60;;
13483;SDS011;6814;57.786;12.080;2023-04-25T13:45:04;0.70;;;0.70;;
13483;SDS011;6814;57.786;12.080;2023-04-25T13:47:30;0.60;;;0.60;;
13483;SDS011;6814;57.786;12.080;2023-04-25T13:49:57;1.17;;;0.80;;
13483;SDS011;6814;57.786;12.080;2023-04-25T13:52:23;0.60;;;0.60;;
13483;SDS011;6814;57.786;12.080;2023-04-25T13:54:52;0.70;;;0.60;;
13483;SDS011;6814;57.786;12.080;2023-04-25T13:57:18;0.93;;;0.60;;
13483;SDS011;6814;57.786;12.080;2023-04-25T13:59:45;1.30;;;0.77;;
13483;SDS011;6814;57.786;12.080;2023-04-25T14:02:12;2.10;;;0.80;;
13483;SDS011;6814;57.786;12.080;2023-04-25T14:04:38;1.43;;;0.90;;
13483;SDS011;6814;57.786;12.080;2023-04-25T14:07:06;1.27;;;0.90;;
13483;SDS011;6814;57.786;12.080;2023-04-25T14:09:32;1.77;;;1.00;;
13483;SDS011;6814;57.786;12.080;2023-04-25T14:12:00;0.80;;;0.60;;
13483;SDS011;6814;57.786;12.080;2023-04-25T14:14:27;0.87;;;0.80;;
13483;SDS011;6814;57.786;12.080;2023-04-25T14:16:53;0.80;;;0.60;;
13483;SDS011;6814;57.786;12.080;2023-04-25T14:19:22;1.80;;;0.80;;
13483;SDS011;6814;57.786;12.080;2023-04-25T14:21:48;1.03;;;0.70;;
13483;SDS011;6814;57.786;12.080;2023-04-25T14:24:15;1.83;;;0.80;;
13483;SDS011;6814;57.786;12.080;2023-04-25T14:26:43;1.33;;;0.70;;
13483;SDS011;6814;57.786;12.080;2023-04-25T14:29:11;1.23;;;0.70;;
13483;SDS011;6814;57.786;12.080;2023-04-25T14:31:37;1.57;;;0.50;;
13483;SDS011;6814;57.786;12.080;2023-04-25T14:34:05;0.30;;;0.30;;
13483;SDS011;6814;57.786;12.080;2023-04-25T14:36:31;1.17;;;0.50;;
13483;SDS011;6814;57.786;12.080;2023-04-25T14:38:58;0.60;;;0.60;;